logo
Rechercher aéroport 
image banner adimage banner adimage banner ad
image banner ad

MMHFN - Farallon

Situé à Alvaro Obregon, Mexico

ICAO - , IATA -

Données fournies par Airmate  

Information générale

Coordonnées: N19°19'22" W99°12'16"
Élévation : 7723 feet MSL.
Variation magnétique : 4° East
Voir autres Aéroports à Distrito Federal

Données opérationnelles

Special qualification required
Heure actuelle UTC:
Heure actuelle locale:
METAR: MMMX 231512Z 10003KT 9SM SKC 16/M03 A3034 NOSIG RMK HZY
Voir NOTAMs / SUP AIP / TFR affectant cet aéroport [VIEW]
Fréquences de communication: [VIEW]

Pistes:

Coordonnées de l'aéroport

Adresse: Alvaro Obregon Mexico

Vue satellite de MMHFN